Terminal Aerodrome Forecast
Issued by NWS North Platte, NE

Home | Current Version | Previous Version | Text Only | Print | Product List | Glossary On
Versions: 1 2 3 4 5 6 7 8 9 10 11 12 13 14
583
FTUS43 KLBF 241720
TAFVTN
TAF
KVTN 241720Z 2418/2518 24012KT P6SM FEW120 SCT250
     FM250200 28013G19KT P6SM SCT250
     FM250600 28015G20KT P6SM SCT050
     FM250900 28019G25KT P6SM BKN050
     FM251400 31019G32KT P6SM FEW200=

USA.gov is the U.S. government's official web portal to all federal, state and local government web resources and services.